Time,TemperatureF,DewpointF,PressureIn,WindDirection,WindDirectionDegrees,WindSpeedMPH,WindSpeedGustMPH,Humidity,HourlyPrecipIn,Conditions,Clouds,dailyrainin,SoftwareType,DateUTC
2013-02-22 00:01:00,1.0,-2.0,-100.00,SW,229,6.0,7.0,88,0.00,,,-99.99,,2013-02-22 07:01:00,
2013-02-22 00:11:00,2.0,-1.0,-100.00,West,260,4.0,6.0,88,0.00,,,-99.99,,2013-02-22 07:11:00,
2013-02-22 00:21:00,4.0,2.0,-100.00,West,260,2.0,4.0,90,0.00,,,-99.99,,2013-02-22 07:21:00,
2013-02-22 00:31:00,5.0,3.0,-100.00,West,260,3.0,4.0,90,0.00,,,-99.99,,2013-02-22 07:31:00,
2013-02-22 00:42:00,6.0,3.0,-100.00,West,280,3.0,4.0,90,0.00,,,-99.99,,2013-02-22 07:42:00,
2013-02-22 00:51:00,6.0,4.0,-100.00,WSW,247,2.0,4.0,90,0.00,,,-99.99,,2013-02-22 07:51:00,
2013-02-22 01:01:00,7.0,4.0,-100.00,SW,229,1.0,2.0,90,0.00,,,-99.99,,2013-02-22 08:01:00,
2013-02-22 01:11:00,6.0,4.0,-100.00,SW,224,2.0,3.0,90,0.00,,,-99.99,,2013-02-22 08:11:00,
2013-02-22 01:21:00,1.0,-1.0,-100.00,SW,224,3.0,4.0,88,0.00,,,-99.99,,2013-02-22 08:21:00,
2013-02-22 01:31:00,3.0,-1.0,-100.00,SW,220,3.0,5.0,85,0.00,,,-99.99,,2013-02-22 08:31:00,
2013-02-22 01:41:00,3.0,1.0,-100.00,SW,224,3.0,4.0,92,0.00,,,-99.99,,2013-02-22 08:41:00,
2013-02-22 01:52:00,4.0,3.0,-100.00,SW,229,2.0,3.0,92,0.00,,,-99.99,,2013-02-22 08:52:00,
2013-02-22 02:03:00,4.0,1.0,-100.00,SW,224,1.0,2.0,87,0.00,,,-99.99,,2013-02-22 09:03:00,
2013-02-22 02:11:00,3.0,0.0,-100.00,WSW,257,1.0,3.0,89,0.00,,,-99.99,,2013-02-22 09:11:00,
2013-02-22 02:21:00,3.0,0.0,-100.00,WNW,298,1.0,3.0,89,0.00,,,-99.99,,2013-02-22 09:21:00,
2013-02-22 02:32:00,2.0,0.0,-100.00,NW,311,1.0,1.0,90,0.00,,,-99.99,,2013-02-22 09:32:00,
2013-02-22 02:41:00,2.0,-1.0,-100.00,NW,313,1.0,2.0,86,0.00,,,-99.99,,2013-02-22 09:41:00,
2013-02-22 02:51:00,1.0,-2.0,-100.00,North,1,1.0,2.0,88,0.00,,,-99.99,,2013-02-22 09:51:00,
2013-02-22 03:01:00,1.0,-2.0,-100.00,NNW,335,1.0,3.0,87,0.00,,,-99.99,,2013-02-22 10:01:00,
2013-02-22 03:11:00,1.0,-2.0,-100.00,NNW,336,1.0,4.0,89,0.00,,,-99.99,,2013-02-22 10:11:00,
2013-02-22 03:21:00,2.0,-1.0,-100.00,NNW,329,2.0,8.0,86,0.00,,,-99.99,,2013-02-22 10:21:00,
2013-02-22 03:32:00,2.0,0.0,-100.00,NW,323,1.0,4.0,90,0.00,,,-99.99,,2013-02-22 10:32:00,
2013-02-22 03:42:00,2.0,-1.0,-100.00,NE,34,1.0,3.0,86,0.00,,,-99.99,,2013-02-22 10:42:00,
2013-02-22 03:51:00,0.0,-3.0,-100.00,NE,55,1.0,4.0,87,0.00,,,-99.99,,2013-02-22 10:51:00,
2013-02-22 04:01:00,-1.0,-4.0,-100.00,SE,136,2.0,6.0,87,0.00,,,-99.99,,2013-02-22 11:01:00,
2013-02-22 04:11:00,-1.0,-4.0,-100.00,SE,124,2.0,5.0,87,0.00,,,-99.99,,2013-02-22 11:11:00,
2013-02-22 04:21:00,-1.0,-4.0,-100.00,SE,136,2.0,6.0,87,0.00,,,-99.99,,2013-02-22 11:21:00,
2013-02-22 04:32:00,-1.0,-4.0,-100.00,ENE,62,0.0,3.0,87,0.00,,,-99.99,,2013-02-22 11:32:00,
2013-02-22 04:42:00,-2.0,-5.0,-100.00,NW,306,1.0,4.0,87,0.00,,,-99.99,,2013-02-22 11:42:00,
2013-02-22 04:52:00,-1.0,-5.0,-100.00,WNW,302,0.0,2.0,86,0.00,,,-99.99,,2013-02-22 11:52:00,
2013-02-22 05:02:00,-2.0,-5.0,-100.00,WNW,292,1.0,3.0,86,0.00,,,-99.99,,2013-02-22 12:02:00,
2013-02-22 05:11:00,3.0,-1.0,-100.00,SE,130,2.0,6.0,81,0.00,,,-99.99,,2013-02-22 12:11:00,
2013-02-22 05:21:00,0.0,-4.0,-100.00,East,86,1.0,3.0,85,0.00,,,-99.99,,2013-02-22 12:21:00,
2013-02-22 05:32:00,0.0,-3.0,-100.00,East,100,1.0,3.0,87,0.00,,,-99.99,,2013-02-22 12:32:00,
2013-02-22 05:42:00,-1.0,-4.0,-100.00,ENE,66,2.0,4.0,84,0.00,,,-99.99,,2013-02-22 12:42:00,
2013-02-22 05:52:00,-1.0,-3.0,-100.00,ENE,73,3.0,6.0,88,0.00,,,-99.99,,2013-02-22 12:52:00,
2013-02-22 06:01:00,1.0,-1.0,-100.00,East,97,4.0,7.0,89,0.00,,,-99.99,,2013-02-22 13:01:00,
2013-02-22 06:11:00,4.0,2.0,-100.00,ESE,113,4.0,7.0,89,0.00,,,-99.99,,2013-02-22 13:11:00,
2013-02-22 06:22:00,1.0,-2.0,-100.00,ESE,110,5.0,9.0,87,0.00,,,-99.99,,2013-02-22 13:22:00,
2013-02-22 06:32:00,0.0,-3.0,-100.00,ESE,106,2.0,4.0,86,0.00,,,-99.99,,2013-02-22 13:32:00,
2013-02-22 06:42:00,4.0,1.0,-100.00,ESE,104,4.0,7.0,90,0.00,,,-99.99,,2013-02-22 13:42:00,
2013-02-22 06:51:00,0.0,-3.0,-100.00,ENE,75,2.0,7.0,86,0.00,,,-99.99,,2013-02-22 13:51:00,
2013-02-22 07:01:00,1.0,-1.0,-100.00,NE,35,4.0,8.0,89,0.00,,,-99.99,,2013-02-22 14:01:00,
2013-02-22 07:11:00,3.0,0.0,-100.00,East,95,3.0,6.0,88,0.00,,,-99.99,,2013-02-22 14:11:00,
2013-02-22 07:21:00,4.0,1.0,-100.00,ESE,110,4.0,8.0,90,0.00,,,-99.99,,2013-02-22 14:21:00,
2013-02-22 07:32:00,3.0,0.0,-100.00,ESE,103,3.0,4.0,89,0.00,,,-99.99,,2013-02-22 14:32:00,
2013-02-22 07:42:00,3.0,1.0,-100.00,North,357,6.0,13.0,88,0.00,,,-99.99,,2013-02-22 14:42:00,
2013-02-22 07:52:00,4.0,2.0,-100.00,NNE,32,4.0,7.0,90,0.00,,,-99.99,,2013-02-22 14:52:00,
2013-02-22 08:01:00,7.0,4.0,-100.00,NE,52,4.0,6.0,89,0.00,,,-99.99,,2013-02-22 15:01:00,
2013-02-22 08:11:00,8.0,6.0,-100.00,NE,47,6.0,7.0,92,0.00,,,-99.99,,2013-02-22 15:11:00,
2013-02-22 08:21:00,9.0,7.0,-100.00,ESE,102,4.0,7.0,92,0.00,,,-99.99,,2013-02-22 15:21:00,
2013-02-22 08:32:00,10.0,8.0,-100.00,SE,128,3.0,7.0,91,0.00,,,-99.99,,2013-02-22 15:32:00,
2013-02-22 08:41:00,11.0,10.0,-100.00,East,82,1.0,4.0,93,0.00,,,-99.99,,2013-02-22 15:41:00,
2013-02-22 08:52:00,12.0,10.0,-100.00,SW,234,1.0,3.0,92,0.00,,,-99.99,,2013-02-22 15:52:00,
2013-02-22 09:01:00,13.0,11.0,-100.00,WSW,250,2.0,4.0,94,0.00,,,-99.99,,2013-02-22 16:01:00,
2013-02-22 09:12:00,13.0,11.0,-100.00,South,181,2.0,4.0,92,0.00,,,-99.99,,2013-02-22 16:12:00,
2013-02-22 09:21:00,14.0,12.0,-100.00,SE,143,2.0,5.0,93,0.00,,,-99.99,,2013-02-22 16:21:00,
2013-02-22 09:32:00,14.0,11.0,-100.00,East,88,6.0,7.0,88,0.00,,,-99.99,,2013-02-22 16:32:00,
2013-02-22 09:42:00,15.0,11.0,-100.00,East,85,6.0,7.0,86,0.00,,,-99.99,,2013-02-22 16:42:00,
2013-02-22 09:52:00,15.0,11.0,-100.00,East,97,6.0,7.0,84,0.00,,,-99.99,,2013-02-22 16:52:00,
2013-02-22 10:01:00,16.0,12.0,-100.00,ESE,106,6.0,8.0,84,0.00,,,-99.99,,2013-02-22 17:01:00,
2013-02-22 10:11:00,17.0,12.0,-100.00,East,99,5.0,7.0,81,0.00,,,-99.99,,2013-02-22 17:11:00,
2013-02-22 10:21:00,17.0,12.0,-100.00,ENE,62,7.0,10.0,78,0.00,,,-99.99,,2013-02-22 17:21:00,
2013-02-22 10:31:00,17.0,11.0,-100.00,NE,55,8.0,10.0,76,0.00,,,-99.99,,2013-02-22 17:31:00,
2013-02-22 10:42:00,18.0,11.0,-100.00,NE,56,7.0,10.0,72,0.00,,,-99.99,,2013-02-22 17:42:00,
2013-02-22 10:52:00,19.0,11.0,-100.00,ENE,59,7.0,11.0,71,0.00,,,-99.99,,2013-02-22 17:52:00,
2013-02-22 11:01:00,20.0,11.0,-100.00,NE,52,5.0,7.0,71,0.00,,,-99.99,,2013-02-22 18:01:00,
2013-02-22 11:12:00,22.0,13.0,-100.00,East,86,2.0,6.0,68,0.00,,,-99.99,,2013-02-22 18:12:00,
2013-02-22 11:22:00,23.0,11.0,-100.00,ENE,58,2.0,5.0,60,0.00,,,-99.99,,2013-02-22 18:22:00,
2013-02-22 11:32:00,23.0,12.0,-100.00,NNW,335,6.0,21.0,61,0.00,,,-99.99,,2013-02-22 18:32:00,
2013-02-22 11:42:00,23.0,14.0,-100.00,WNW,295,12.0,19.0,67,0.00,,,-99.99,,2013-02-22 18:42:00,
2013-02-22 11:51:00,22.0,10.0,-100.00,NW,309,18.0,24.0,61,0.00,,,-99.99,,2013-02-22 18:51:00,
2013-02-22 12:01:00,20.0,12.0,-100.00,NW,319,21.0,25.0,69,0.00,,,-99.99,,2013-02-22 19:01:00,
2013-02-22 12:11:00,22.0,10.0,-100.00,NW,308,21.0,26.0,60,0.00,,,-99.99,,2013-02-22 19:11:00,
2013-02-22 12:21:00,22.0,9.0,-100.00,NW,309,19.0,26.0,58,0.00,,,-99.99,,2013-02-22 19:21:00,
2013-02-22 12:31:00,24.0,11.0,-100.00,NW,311,16.0,20.0,58,0.00,,,-99.99,,2013-02-22 19:31:00,
2013-02-22 12:41:00,21.0,9.0,-100.00,NW,313,18.0,26.0,59,0.00,,,-99.99,,2013-02-22 19:41:00,
2013-02-22 12:52:00,22.0,9.0,-100.00,NW,325,17.0,25.0,59,0.00,,,-99.99,,2013-02-22 19:52:00,
2013-02-22 13:01:00,23.0,10.0,-100.00,NW,318,12.0,20.0,57,0.00,,,-99.99,,2013-02-22 20:01:00,
2013-02-22 13:11:00,23.0,9.0,-100.00,NW,326,11.0,16.0,54,0.00,,,-99.99,,2013-02-22 20:11:00,
2013-02-22 13:21:00,24.0,8.0,-100.00,North,10,9.0,13.0,52,0.00,,,-99.99,,2013-02-22 20:21:00,
2013-02-22 13:31:00,24.0,7.0,-100.00,ESE,114,5.0,16.0,48,0.00,,,-99.99,,2013-02-22 20:31:00,
2013-02-22 13:41:00,23.0,7.0,-100.00,ENE,78,7.0,11.0,51,0.00,,,-99.99,,2013-02-22 20:41:00,
2013-02-22 13:52:00,24.0,7.0,-100.00,East,86,4.0,9.0,48,0.00,,,-99.99,,2013-02-22 20:52:00,
2013-02-22 14:01:00,25.0,7.0,-100.00,NW,323,2.0,6.0,45,0.00,,,-99.99,,2013-02-22 21:01:00,
2013-02-22 14:11:00,25.0,6.0,-100.00,WSW,254,11.0,26.0,43,0.00,,,-99.99,,2013-02-22 21:11:00,
2013-02-22 14:21:00,26.0,4.0,-100.00,SW,227,18.0,23.0,40,0.00,,,-99.99,,2013-02-22 21:21:00,
2013-02-22 14:32:00,26.0,3.0,-100.00,SW,224,19.0,27.0,38,0.00,,,-99.99,,2013-02-22 21:32:00,
2013-02-22 14:42:00,25.0,5.0,-100.00,WSW,247,12.0,18.0,41,0.00,,,-99.99,,2013-02-22 21:42:00,
2013-02-22 14:51:00,25.0,6.0,-100.00,West,267,12.0,17.0,43,0.00,,,-99.99,,2013-02-22 21:51:00,
2013-02-22 15:01:00,24.0,11.0,-100.00,WNW,294,13.0,18.0,55,0.00,,,-99.99,,2013-02-22 22:01:00,
2013-02-22 15:11:00,24.0,4.0,-100.00,NW,305,14.0,24.0,40,0.00,,,-99.99,,2013-02-22 22:11:00,
2013-02-22 15:21:00,24.0,7.0,-100.00,WNW,302,16.0,22.0,47,0.00,,,-99.99,,2013-02-22 22:21:00,
2013-02-22 15:31:00,24.0,7.0,-100.00,WNW,302,14.0,20.0,47,0.00,,,-99.99,,2013-02-22 22:31:00,
2013-02-22 15:41:00,26.0,5.0,-100.00,West,274,10.0,19.0,40,0.00,,,-99.99,,2013-02-22 22:41:00,
2013-02-22 15:51:00,26.0,2.0,-100.00,West,280,11.0,15.0,35,0.00,,,-99.99,,2013-02-22 22:51:00,
2013-02-22 16:01:00,24.0,4.0,-100.00,West,272,11.0,17.0,41,0.00,,,-99.99,,2013-02-22 23:01:00,
2013-02-22 16:11:00,25.0,5.0,-100.00,WNW,287,10.0,14.0,41,0.00,,,-99.99,,2013-02-22 23:11:00,
2013-02-22 16:21:00,25.0,4.0,-100.00,WNW,282,10.0,14.0,39,0.00,,,-99.99,,2013-02-22 23:21:00,
2013-02-22 16:31:00,25.0,2.0,-100.00,West,275,7.0,11.0,35,0.00,,,-99.99,,2013-02-22 23:31:00,
2013-02-22 16:41:00,25.0,3.0,-100.00,West,274,7.0,11.0,38,0.00,,,-99.99,,2013-02-22 23:41:00,
2013-02-22 16:52:00,25.0,1.0,-100.00,WSW,239,11.0,17.0,35,0.00,,,-99.99,,2013-02-22 23:52:00,
2013-02-22 17:01:00,25.0,4.0,-100.00,WSW,247,9.0,16.0,40,0.00,,,-99.99,,2013-02-23 00:01:00,
2013-02-22 17:11:00,24.0,4.0,-100.00,West,260,9.0,17.0,40,0.00,,,-99.99,,2013-02-23 00:11:00,
2013-02-22 17:21:00,23.0,3.0,-100.00,SW,223,17.0,21.0,42,0.00,,,-99.99,,2013-02-23 00:21:00,
2013-02-22 17:32:00,22.0,4.0,-100.00,WSW,243,13.0,19.0,45,0.00,,,-99.99,,2013-02-23 00:32:00,
2013-02-22 17:41:00,21.0,4.0,-100.00,SW,236,11.0,16.0,46,0.00,,,-99.99,,2013-02-23 00:41:00,
2013-02-22 17:51:00,20.0,4.0,-100.00,WSW,244,9.0,12.0,50,0.00,,,-99.99,,2013-02-23 00:51:00,
2013-02-22 18:01:00,19.0,4.0,-100.00,WSW,240,7.0,12.0,53,0.00,,,-99.99,,2013-02-23 01:01:00,
2013-02-22 18:11:00,17.0,5.0,-100.00,SW,233,7.0,12.0,56,0.00,,,-99.99,,2013-02-23 01:11:00,
2013-02-22 18:21:00,18.0,4.0,-100.00,SW,232,11.0,14.0,53,0.00,,,-99.99,,2013-02-23 01:21:00,
2013-02-22 18:31:00,17.0,3.0,-100.00,SW,236,8.0,11.0,55,0.00,,,-99.99,,2013-02-23 01:31:00,
2013-02-22 18:41:00,16.0,4.0,-100.00,SW,230,7.0,9.0,58,0.00,,,-99.99,,2013-02-23 01:41:00,
2013-02-22 18:51:00,16.0,4.0,-100.00,SW,217,11.0,13.0,59,0.00,,,-99.99,,2013-02-23 01:51:00,
2013-02-22 19:01:00,17.0,4.0,-100.00,SSW,210,12.0,14.0,57,0.00,,,-99.99,,2013-02-23 02:01:00,
2013-02-22 19:11:00,15.0,4.0,-100.00,SSW,206,12.0,14.0,61,0.00,,,-99.99,,2013-02-23 02:11:00,
2013-02-22 19:21:00,14.0,4.0,-100.00,SSW,202,11.0,13.0,64,0.00,,,-99.99,,2013-02-23 02:21:00,
2013-02-22 19:31:00,16.0,5.0,-100.00,SSW,205,11.0,16.0,61,0.00,,,-99.99,,2013-02-23 02:31:00,
2013-02-22 19:41:00,17.0,5.0,-100.00,SSW,200,14.0,17.0,58,0.00,,,-99.99,,2013-02-23 02:41:00,
2013-02-22 19:52:00,17.0,5.0,-100.00,SSW,193,14.0,18.0,59,0.00,,,-99.99,,2013-02-23 02:52:00,
2013-02-22 20:01:00,17.0,5.0,-100.00,South,191,14.0,17.0,60,0.00,,,-99.99,,2013-02-23 03:01:00,
2013-02-22 20:11:00,17.0,5.0,-100.00,South,191,15.0,18.0,58,0.00,,,-99.99,,2013-02-23 03:11:00,
2013-02-22 20:21:00,16.0,5.0,-100.00,South,191,13.0,17.0,61,0.00,,,-99.99,,2013-02-23 03:21:00,
2013-02-22 20:32:00,17.0,5.0,-100.00,SSW,196,13.0,17.0,60,0.00,,,-99.99,,2013-02-23 03:32:00,
2013-02-22 20:41:00,18.0,5.0,-100.00,SSW,209,12.0,22.0,58,0.00,,,-99.99,,2013-02-23 03:41:00,
2013-02-22 20:51:00,19.0,5.0,-100.00,SW,219,21.0,27.0,54,0.00,,,-99.99,,2013-02-23 03:51:00,
2013-02-22 21:01:00,18.0,5.0,-100.00,SSW,212,17.0,22.0,56,0.00,,,-99.99,,2013-02-23 04:01:00,
2013-02-22 21:11:00,19.0,5.0,-100.00,SSW,212,17.0,24.0,55,0.00,,,-99.99,,2013-02-23 04:11:00,
2013-02-22 21:21:00,18.0,5.0,-100.00,SSW,212,17.0,22.0,57,0.00,,,-99.99,,2013-02-23 04:21:00,
2013-02-22 21:31:00,18.0,5.0,-100.00,SSW,206,17.0,26.0,56,0.00,,,-99.99,,2013-02-23 04:31:00,
2013-02-22 21:41:00,18.0,5.0,-100.00,SW,215,16.0,19.0,55,0.00,,,-99.99,,2013-02-23 04:41:00,
2013-02-22 21:51:00,18.0,5.0,-100.00,SW,219,21.0,30.0,56,0.00,,,-99.99,,2013-02-23 04:51:00,
2013-02-22 22:02:00,18.0,5.0,-100.00,SSW,210,15.0,21.0,56,0.00,,,-99.99,,2013-02-23 05:02:00,
2013-02-22 22:12:00,18.0,5.0,-100.00,SSW,208,13.0,17.0,55,0.00,,,-99.99,,2013-02-23 05:12:00,
2013-02-22 22:22:00,18.0,5.0,-100.00,SSW,200,13.0,19.0,56,0.00,,,-99.99,,2013-02-23 05:22:00,
2013-02-22 22:32:00,19.0,5.0,-100.00,SW,220,19.0,26.0,53,0.00,,,-99.99,,2013-02-23 05:32:00,
2013-02-22 22:41:00,20.0,4.0,-100.00,SW,227,21.0,30.0,51,0.00,,,-99.99,,2013-02-23 05:41:00,
2013-02-22 22:52:00,20.0,5.0,-100.00,SW,226,24.0,30.0,52,0.00,,,-99.99,,2013-02-23 05:52:00,
2013-02-22 23:01:00,20.0,4.0,-100.00,SW,224,22.0,32.0,50,0.00,,,-99.99,,2013-02-23 06:01:00,
2013-02-22 23:11:00,20.0,4.0,-100.00,SW,227,26.0,37.0,50,0.00,,,-99.99,,2013-02-23 06:11:00,
2013-02-22 23:22:00,20.0,5.0,-100.00,SW,224,21.0,29.0,51,0.00,,,-99.99,,2013-02-23 06:22:00,
2013-02-22 23:31:00,19.0,5.0,-100.00,SW,226,20.0,27.0,53,0.00,,,-99.99,,2013-02-23 06:31:00,
2013-02-22 23:41:00,19.0,5.0,-100.00,SW,226,20.0,27.0,53,0.00,,,-99.99,,2013-02-23 06:41:00,
2013-02-22 23:51:00,19.0,5.0,-100.00,SW,226,20.0,27.0,53,0.00,,,-99.99,,2013-02-23 06:51:00,